Time;durP1;ratioP1;P1;durP2;ratioP2;P2;SDS_P1;SDS_P2;PMS_P1;PMS_P2;Temp;Humidity;BMP_temperature;BMP_pressure;BME280_temperature;BME280_humidity;BME280_pressure;Samples;Min_cycle;Max_cycle;Signal;HPM_P1;HPM_P2
2023/09/20 00:26:06;;;;;;;6.40;1.45;;;21.60;61.40;;;;;;6115099;29;20047;-75
2023/09/20 00:30:00;;;;;;;6.28;1.25;;;21.60;61.20;;;;;;6065036;29;20140;-75
2023/09/20 00:33:01;;;;;;;2.10;1.20;;;21.60;61.00;;;;;;6057857;29;20239;-75
2023/09/20 00:36:02;;;;;;;5.40;1.40;;;21.50;61.00;;;;;;6029095;29;20053;-74
2023/09/20 00:39:03;;;;;;;3.67;1.40;;;21.60;61.10;;;;;;6029227;29;20044;-75
2023/09/20 00:42:04;;;;;;;6.45;1.45;;;21.60;61.10;;;;;;6029602;29;20426;-76
2023/09/20 00:45:06;;;;;;;3.58;1.23;;;21.60;61.20;;;;;;6035869;29;20051;-76
2023/09/20 00:48:09;;;;;;;2.35;1.52;;;21.60;61.30;;;;;;6029682;29;20632;-76
2023/09/20 00:51:10;;;;;;;5.68;1.38;;;21.60;61.40;;;;;;6044898;29;20056;-74
2023/09/20 00:54:12;;;;;;;2.97;1.25;;;21.60;61.40;;;;;;6042581;29;20050;-75
2023/09/20 00:57:13;;;;;;;2.97;1.55;;;21.60;61.40;;;;;;6107338;29;20655;-74
2023/09/20 01:00:27;;;;;;;3.33;1.27;;;21.50;61.10;;;;;;6118526;28;20059;-74
2023/09/20 01:03:28;;;;;;;3.40;1.40;;;21.50;60.80;;;;;;6161784;28;20130;-74
2023/09/20 01:06:30;;;;;;;2.65;1.20;;;21.40;61.30;;;;;;6207649;28;20053;-74
2023/09/20 01:09:31;;;;;;;1.75;1.20;;;21.40;60.40;;;;;;6214434;28;20065;-74
2023/09/20 01:12:33;;;;;;;4.82;1.48;;;21.40;60.40;;;;;;6233716;28;20038;-75
2023/09/20 01:15:35;;;;;;;2.28;1.25;;;21.40;60.40;;;;;;6236754;28;20164;-75
2023/09/20 01:25:18;;;;;;;1.95;1.45;;;21.30;60.50;;;;;;1580735;23;21177;-75
2023/09/20 01:53:56;;;;;;;5.85;1.40;;;21.10;61.30;;;;;;5202182;23;20053;-74
2023/09/20 02:38:59;;;;;;;2.72;1.30;;;20.80;62.60;;;;;;6212533;28;20522;-74
2023/09/20 03:35:54;;;;;;;4.32;1.20;;;20.50;64.50;;;;;;6205913;22;20061;-75
2023/09/20 03:38:57;;;;;;;2.25;1.42;;;20.50;64.70;;;;;;6198544;28;20121;-75
2023/09/20 04:02:16;;;;;;;8.88;1.40;;;20.30;65.20;;;;;;6240251;23;20080;-76
2023/09/20 04:05:17;;;;;;;3.58;1.52;;;20.30;65.30;;;;;;6221825;28;20801;-74
2023/09/20 04:08:19;;;;;;;9.98;1.23;;;20.30;65.30;;;;;;6238285;28;20038;-74
2023/09/20 04:11:21;;;;;;;2.10;1.55;;;20.30;65.30;;;;;;6213581;28;20056;-74
2023/09/20 04:33:38;;;;;;;2.47;1.67;;;20.00;66.30;;;;;;6138537;28;20582;-73
2023/09/20 05:22:12;;;;;;;13.27;2.45;;;19.90;67.50;;;;;;5513713;22;20053;-74
2023/09/20 05:25:14;;;;;;;9.65;2.00;;;19.90;67.70;;;;;;6236070;28;20635;-75
2023/09/20 05:42:40;;;;;;;7.07;1.98;;;19.80;67.60;;;;;;6184808;28;20238;-74
2023/09/20 05:45:41;;;;;;;4.55;2.08;;;19.90;67.50;;;;;;6191333;28;20035;-75
2023/09/20 09:03:55;;;;;;;3.85;1.70;;;23.60;56.70;;;;;;2693056;22;20327;-75
2023/09/20 10:03:59;;;;;;;5.40;2.03;;;25.10;52.60;;;;;;5298917;26;20050;-76
2023/09/20 10:48:04;;;;;;;;;;;;;;;;;;;;;
2023/09/20 10:51:43;;;;;;;2.38;1.70;;;26.60;49.30;;;;;;6024207;29;20121;-75
2023/09/20 10:55:20;;;;;;;;;;;;;;;;;;;;;
2023/09/20 10:58:41;;;;;;;8.15;2.72;;;27.30;48.40;;;;;;6024281;29;20049;-75
2023/09/20 11:12:06;;;;;;;;;;;;;;;;;;;;;
2023/09/20 11:15:49;;;;;;;4.22;1.88;;;28.20;45.60;;;;;;5973672;29;20119;-76
2023/09/20 11:24:25;;;;;;;6.45;1.50;;;29.10;43.80;;;;;;6000599;29;20065;-76
2023/09/20 11:27:45;;;;;;;2.53;1.38;;;29.70;43.40;;;;;;6445250;23;20744;-75
2023/09/20 11:32:19;;;;;;;2.03;1.08;;;30.00;42.60;;;;;;6209113;28;20038;-76
2023/09/20 11:39:00;;;;;;;;;;;31.10;41.50;;;;;;6238930;28;20057;-77
2023/09/20 11:43:02;;;;;;;2.85;1.30;;;31.60;40.40;;;;;;6238919;28;19913;-76
2023/09/20 11:46:17;;;;;;;5.50;1.42;;;31.90;39.50;;;;;;6159545;28;20508;-74
2023/09/20 11:49:19;;;;;;;3.78;1.40;;;32.50;38.80;;;;;;6104822;29;20066;-77
2023/09/20 11:52:20;;;;;;;2.35;1.30;;;32.80;38.30;;;;;;6116686;29;20134;-76
2023/09/20 11:55:21;;;;;;;4.57;1.30;;;33.10;37.70;;;;;;6116693;29;20091;-76
2023/09/20 11:58:22;;;;;;;2.65;1.40;;;32.90;37.40;;;;;;6100277;29;20051;-77
2023/09/20 12:01:24;;;;;;;8.43;2.00;;;32.70;37.30;;;;;;6115866;29;20125;-75
2023/09/20 12:04:25;;;;;;;1.85;1.15;;;32.40;37.30;;;;;;6115931;29;20038;-76
2023/09/20 12:07:26;;;;;;;3.17;1.30;;;32.30;37.20;;;;;;6115796;29;20533;-75
2023/09/20 12:10:29;;;;;;;6.90;1.67;;;32.20;37.00;;;;;;6138705;28;20154;-76
2023/09/20 12:13:30;;;;;;;3.25;1.25;;;32.10;36.90;;;;;;6123377;29;20075;-76
2023/09/20 12:16:31;;;;;;;1.35;1.10;;;32.00;36.80;;;;;;6139566;28;20051;-76
2023/09/20 12:19:32;;;;;;;5.38;1.60;;;31.90;37.10;;;;;;6139060;28;20072;-74
2023/09/20 12:22:33;;;;;;;3.22;1.23;;;31.90;37.20;;;;;;6192258;28;20630;-77
2023/09/20 12:25:37;;;;;;;3.38;1.65;;;31.70;37.30;;;;;;6215772;28;20095;-75
2023/09/20 12:28:38;;;;;;;12.25;1.50;;;31.50;37.50;;;;;;6215684;28;20041;-77
2023/09/20 12:31:39;;;;;;;3.13;1.52;;;31.10;37.80;;;;;;6215156;28;20034;-76
2023/09/20 12:34:40;;;;;;;3.70;1.27;;;30.80;38.10;;;;;;6214027;28;20049;-75
2023/09/20 12:37:40;;;;;;;2.22;0.95;;;30.60;38.40;;;;;;6213281;28;20041;-77
2023/09/20 12:40:41;;;;;;;1.52;0.85;;;30.50;38.30;;;;;;6215188;28;20044;-75
2023/09/20 12:43:42;;;;;;;2.60;1.10;;;30.50;38.20;;;;;;6214884;28;20026;-75
2023/09/20 12:46:43;;;;;;;1.58;0.93;;;30.80;37.30;;;;;;6228644;28;20437;-76
2023/09/20 12:49:46;;;;;;;3.38;0.95;;;31.30;36.20;;;;;;6239078;28;20033;-75
2023/09/20 12:52:48;;;;;;;2.03;0.90;;;31.50;35.60;;;;;;6238644;28;20043;-76
2023/09/20 12:59:14;;;;;;;5.35;1.30;;;31.30;35.80;;;;;;6188123;28;20199;-75
2023/09/20 13:02:23;;;;;;;2.78;0.82;;;30.90;36.00;;;;;;6188392;28;20034;-77
2023/09/20 13:05:43;;;;;;;2.00;1.25;;;30.70;36.30;;;;;;6173190;28;20115;-74
2023/09/20 13:09:02;;;;;;;4.10;1.20;;;30.40;36.60;;;;;;6164541;28;20102;-74
2023/09/20 13:12:08;;;;;;;2.38;1.02;;;30.20;37.10;;;;;;6164079;28;20520;-77
2023/09/20 13:15:14;;;;;;;2.08;1.08;;;30.00;37.40;;;;;;6165806;28;20096;-75
2023/09/20 13:18:16;;;;;;;3.00;1.10;;;29.70;37.70;;;;;;6163780;28;20035;-74
2023/09/20 13:21:17;;;;;;;4.00;1.17;;;29.60;38.30;;;;;;6164094;28;20111;-75
2023/09/20 13:24:17;;;;;;;2.58;1.02;;;29.40;38.70;;;;;;6165242;28;20217;-74
2023/09/20 13:27:19;;;;;;;2.45;1.02;;;29.30;39.10;;;;;;6165188;28;20065;-76
2023/09/20 13:30:20;;;;;;;3.25;1.02;;;29.20;39.40;;;;;;6179567;28;20045;-75
2023/09/20 13:33:20;;;;;;;4.90;1.30;;;29.10;39.70;;;;;;6165086;28;20071;-75
2023/09/20 13:36:21;;;;;;;3.00;1.25;;;29.10;39.90;;;;;;6163408;28;20033;-76
2023/09/20 13:39:22;;;;;;;5.55;1.00;;;29.10;40.10;;;;;;6163327;28;20027;-75
2023/09/20 13:42:23;;;;;;;11.93;1.10;;;29.10;40.30;;;;;;6145017;28;20047;-76
2023/09/20 13:45:26;;;;;;;6.75;1.30;;;29.00;40.60;;;;;;6154760;28;20260;-74
2023/09/20 13:48:36;;;;;;;2.60;1.30;;;28.90;40.90;;;;;;6279150;23;20506;-74
2023/09/20 13:51:50;;;;;;;1.85;1.05;;;28.70;41.10;;;;;;6212530;28;20108;-76
2023/09/20 14:04:39;;;;;;;2.70;1.42;;;28.50;41.80;;;;;;6089054;29;20098;-75
2023/09/20 14:13:07;;;;;;;4.03;1.17;;;28.40;42.10;;;;;;6041329;29;20625;-74
2023/09/20 14:16:52;;;;;;;2.22;1.02;;;28.30;42.10;;;;;;6019562;29;20203;-75
2023/09/20 14:20:40;;;;;;;2.53;1.30;;;28.40;42.20;;;;;;6042419;29;20128;-76
2023/09/20 14:24:57;;;;;;;5.43;1.23;;;28.40;42.20;;;;;;6034967;29;20135;-75
2023/09/20 14:28:47;;;;;;;5.15;1.67;;;28.40;42.30;;;;;;6076767;29;20039;-76
2023/09/20 14:32:20;;;;;;;3.38;1.30;;;28.20;42.40;;;;;;6112663;29;20049;-75
2023/09/20 14:35:35;;;;;;;9.90;1.55;;;28.20;42.80;;;;;;6097140;29;20163;-74
2023/09/20 14:38:36;;;;;;;1.13;0.93;;;28.20;43.00;;;;;;6089999;29;20182;-74
2023/09/20 14:41:37;;;;;;;2.80;1.23;;;28.20;43.10;;;;;;6073724;29;20119;-76
2023/09/20 14:44:38;;;;;;;4.70;1.35;;;28.10;43.20;;;;;;6093586;29;20731;-75
2023/09/20 14:47:43;;;;;;;9.20;1.50;;;28.10;43.30;;;;;;6118134;29;20054;-75
2023/09/20 14:50:44;;;;;;;3.75;1.10;;;28.10;43.40;;;;;;6139668;28;20525;-76
2023/09/20 14:53:45;;;;;;;3.22;1.30;;;28.10;43.40;;;;;;6161028;28;20103;-76
2023/09/20 14:56:46;;;;;;;2.50;1.50;;;28.10;43.60;;;;;;6186683;28;20431;-75
2023/09/20 14:59:46;;;;;;;2.70;1.35;;;28.00;44.20;;;;;;6164413;28;20054;-75
2023/09/20 15:02:49;;;;;;;4.85;1.50;;;28.00;43.80;;;;;;6164502;28;20027;-75
2023/09/20 15:12:26;;;;;;;2.85;1.30;;;27.80;43.90;;;;;;2461070;23;20057;-75
2023/09/20 15:15:28;;;;;;;1.65;1.00;;;27.90;43.80;;;;;;6235081;28;20115;-75
2023/09/20 15:18:30;;;;;;;2.15;1.10;;;27.80;43.70;;;;;;6235274;28;20029;-75
2023/09/20 15:21:31;;;;;;;2.78;1.30;;;27.80;43.70;;;;;;6237864;28;20036;-75
2023/09/20 15:24:35;;;;;;;3.88;1.40;;;27.70;43.70;;;;;;6223618;28;20041;-76
2023/09/20 15:39:51;;;;;;;2.13;1.17;;;27.70;44.00;;;;;;6089244;29;20390;-77
2023/09/20 15:43:48;;;;;;;;;;;;;;;;;;;;;
2023/09/20 15:54:54;;;;;;;4.10;1.63;;;27.60;44.50;;;;;;6162128;28;20050;-78
2023/09/20 16:28:11;;;;;;;4.38;1.60;;;27.00;46.90;;;;;;6119938;29;20137;-76
2023/09/20 16:31:13;;;;;;;3.05;1.50;;;26.90;47.00;;;;;;6113889;29;20139;-78
2023/09/20 16:34:14;;;;;;;3.78;1.77;;;26.90;47.20;;;;;;6113459;29;20063;-75
2023/09/20 16:43:48;;;;;;;4.82;2.08;;;26.80;47.60;;;;;;787536;26;1459207;-77
2023/09/20 16:46:49;;;;;;;9.70;1.88;;;26.80;47.90;;;;;;6221048;28;20116;-75
2023/09/20 16:49:53;;;;;;;3.22;1.65;;;26.70;48.00;;;;;;6227001;28;20053;-74
2023/09/20 16:52:54;;;;;;;8.02;2.20;;;26.60;48.20;;;;;;6214804;28;20378;-75
2023/09/20 16:55:55;;;;;;;4.57;1.80;;;26.60;48.50;;;;;;6196818;28;20034;-77
2023/09/20 16:58:55;;;;;;;6.97;1.75;;;26.50;48.70;;;;;;6213897;28;20133;-75
2023/09/20 17:01:56;;;;;;;3.80;1.77;;;26.50;48.90;;;;;;6196059;28;20081;-74
2023/09/20 17:04:57;;;;;;;7.28;1.70;;;26.40;49.20;;;;;;6213755;28;20042;-74
2023/09/20 17:07:58;;;;;;;10.43;1.92;;;26.30;49.30;;;;;;6196629;28;20034;-75
2023/09/20 17:10:59;;;;;;;8.38;2.20;;;26.30;49.50;;;;;;6210367;28;20028;-74
2023/09/20 17:13:59;;;;;;;5.57;1.95;;;26.20;49.60;;;;;;6263864;28;20745;-75
2023/09/20 17:17:00;;;;;;;10.60;2.42;;;26.20;49.80;;;;;;6245255;28;20139;-74
2023/09/20 17:20:02;;;;;;;7.85;2.17;;;26.20;50.00;;;;;;6263585;28;20334;-74
2023/09/20 17:23:04;;;;;;;5.97;1.85;;;26.10;50.10;;;;;;6230619;28;20124;-74
2023/09/20 17:26:04;;;;;;;6.70;1.63;;;26.10;50.40;;;;;;6222354;28;20030;-76
2023/09/20 17:29:05;;;;;;;5.38;2.10;;;26.10;50.70;;;;;;6213515;28;20049;-75
2023/09/20 17:32:06;;;;;;;5.20;2.13;;;26.00;50.90;;;;;;6195828;28;20034;-75
2023/09/20 17:35:09;;;;;;;5.35;2.15;;;25.90;51.10;;;;;;6214185;28;20044;-74
2023/09/20 17:38:10;;;;;;;9.85;2.08;;;25.90;51.40;;;;;;6213817;28;20033;-76
2023/09/20 17:41:11;;;;;;;9.52;2.33;;;25.90;51.50;;;;;;6213201;28;20550;-76
2023/09/20 17:44:13;;;;;;;13.65;1.88;;;25.90;51.40;;;;;;6195752;28;20038;-74
2023/09/20 17:47:15;;;;;;;4.65;2.50;;;25.80;51.50;;;;;;6232672;28;20044;-75
2023/09/20 17:50:16;;;;;;;3.80;1.98;;;25.80;51.70;;;;;;6238660;28;20082;-76
2023/09/20 17:53:17;;;;;;;4.82;2.10;;;25.80;52.00;;;;;;6238459;28;20173;-75
2023/09/20 17:56:22;;;;;;;7.55;1.70;;;25.70;52.10;;;;;;6238486;28;20041;-74
2023/09/20 17:59:23;;;;;;;4.47;1.80;;;25.70;52.40;;;;;;6238450;28;20033;-77
2023/09/20 18:02:28;;;;;;;4.30;2.28;;;25.60;52.30;;;;;;6238843;28;20043;-75
2023/09/20 18:05:32;;;;;;;11.43;2.60;;;25.60;52.50;;;;;;6238710;28;20030;-74
2023/09/20 18:08:33;;;;;;;5.20;1.73;;;25.50;52.70;;;;;;6238786;28;20026;-75
2023/09/20 18:11:34;;;;;;;3.88;2.00;;;25.50;52.80;;;;;;6220395;28;20519;-74
2023/09/20 18:14:35;;;;;;;5.65;2.05;;;25.40;53.00;;;;;;6220540;28;20037;-76
2023/09/20 18:17:40;;;;;;;4.47;2.08;;;25.40;53.30;;;;;;6220379;28;20121;-75
2023/09/20 18:20:40;;;;;;;4.65;2.10;;;25.30;53.40;;;;;;6238055;28;20033;-74
2023/09/20 18:23:42;;;;;;;7.70;2.15;;;25.30;53.60;;;;;;6238283;28;20144;-75
2023/09/20 18:26:43;;;;;;;5.63;2.10;;;25.20;53.60;;;;;;6238195;28;20037;-75
2023/09/20 18:29:43;;;;;;;10.60;2.50;;;25.20;53.80;;;;;;6202914;28;20040;-74
2023/09/20 18:32:44;;;;;;;2.22;1.48;;;25.20;53.90;;;;;;6238151;28;20132;-73
2023/09/20 18:35:45;;;;;;;4.30;2.00;;;25.10;54.00;;;;;;6237699;28;20064;-74
2023/09/20 18:38:47;;;;;;;6.28;2.17;;;25.10;54.00;;;;;;6219900;28;20061;-75
2023/09/20 18:41:49;;;;;;;7.57;2.08;;;25.10;54.10;;;;;;6237408;28;20433;-76
2023/09/20 18:44:50;;;;;;;7.55;3.03;;;25.10;54.30;;;;;;6237735;28;20048;-74
2023/09/20 18:47:51;;;;;;;3.13;1.90;;;25.10;54.40;;;;;;6243190;28;20120;-76
2023/09/20 18:50:52;;;;;;;4.22;1.92;;;25.00;54.40;;;;;;6262314;28;20029;-73
2023/09/20 18:53:53;;;;;;;5.90;1.80;;;25.00;54.40;;;;;;6244159;28;20087;-73
2023/09/20 18:56:53;;;;;;;2.92;1.95;;;25.00;54.40;;;;;;6265852;28;20032;-74
2023/09/20 18:59:56;;;;;;;2.95;2.00;;;25.00;54.40;;;;;;6267000;28;20147;-74
2023/09/20 19:02:57;;;;;;;3.13;1.88;;;25.00;54.50;;;;;;6267344;28;20090;-76
2023/09/20 19:05:59;;;;;;;12.75;2.42;;;25.00;54.70;;;;;;6266586;28;20032;-74
2023/09/20 19:09:00;;;;;;;7.18;2.25;;;24.90;54.80;;;;;;6267330;28;20032;-74
2023/09/20 19:12:01;;;;;;;12.13;3.35;;;24.90;54.90;;;;;;6224908;28;20492;-75
2023/09/20 19:15:04;;;;;;;6.88;1.77;;;24.80;55.00;;;;;;6217912;28;20065;-74
2023/09/20 19:18:06;;;;;;;4.78;1.75;;;24.80;55.10;;;;;;6207172;28;20030;-75
2023/09/20 19:21:13;;;;;;;5.18;2.28;;;24.80;55.20;;;;;;6217109;28;20430;-74
2023/09/20 19:24:14;;;;;;;8.25;2.38;;;24.70;55.40;;;;;;6199106;28;20124;-75
2023/09/20 19:27:15;;;;;;;4.30;1.95;;;24.70;55.60;;;;;;6216777;28;20108;-74
2023/09/20 19:30:17;;;;;;;8.10;2.00;;;24.60;55.80;;;;;;6198600;28;20038;-74
2023/09/20 19:33:18;;;;;;;13.07;1.90;;;24.50;56.00;;;;;;6217002;28;20125;-74
2023/09/20 19:36:19;;;;;;;5.03;2.15;;;24.50;56.00;;;;;;6217074;28;20046;-73
2023/09/20 19:39:20;;;;;;;11.85;2.63;;;24.50;56.10;;;;;;6213709;28;20044;-74
2023/09/20 19:42:23;;;;;;;3.92;1.92;;;24.50;56.20;;;;;;6241285;28;20116;-73
2023/09/20 19:45:26;;;;;;;5.90;1.77;;;24.50;56.20;;;;;;6244395;28;20132;-74
2023/09/20 19:48:29;;;;;;;4.50;1.80;;;24.50;56.30;;;;;;6265627;28;20033;-73
2023/09/20 19:51:30;;;;;;;8.50;2.30;;;24.40;56.30;;;;;;6265437;28;20062;-73
2023/09/20 19:54:32;;;;;;;6.38;2.03;;;24.40;56.50;;;;;;6264998;28;20040;-74
2023/09/20 19:57:36;;;;;;;7.32;2.42;;;24.40;56.50;;;;;;6265257;28;20036;-73
2023/09/20 20:00:39;;;;;;;6.55;2.30;;;24.40;56.60;;;;;;6264825;28;20115;-73
2023/09/20 20:03:40;;;;;;;13.93;2.22;;;24.40;56.80;;;;;;6265152;28;20094;-73
2023/09/20 20:06:41;;;;;;;11.40;2.80;;;24.40;56.80;;;;;;6264421;28;20041;-73
2023/09/20 20:09:42;;;;;;;6.50;2.15;;;24.30;56.90;;;;;;6264872;28;20079;-73
2023/09/20 20:12:44;;;;;;;8.88;2.10;;;24.30;57.00;;;;;;6236483;28;20049;-73
2023/09/20 20:15:45;;;;;;;3.53;2.00;;;24.30;57.30;;;;;;6239781;28;20055;-73
2023/09/20 20:18:46;;;;;;;14.52;2.22;;;24.30;57.30;;;;;;6239557;28;20343;-73
2023/09/20 20:21:48;;;;;;;4.47;2.03;;;24.20;57.40;;;;;;6239989;28;20171;-72
2023/09/20 20:24:49;;;;;;;11.63;2.35;;;24.20;57.50;;;;;;6221633;28;20052;-73
2023/09/20 20:27:51;;;;;;;5.40;1.77;;;24.20;58.10;;;;;;6205427;28;20053;-73
2023/09/20 20:30:52;;;;;;;8.82;2.58;;;24.10;57.70;;;;;;6239308;28;20091;-72
2023/09/20 20:33:53;;;;;;;3.38;2.00;;;24.20;57.70;;;;;;6221725;28;20466;-74
2023/09/20 20:36:56;;;;;;;12.20;2.75;;;24.10;57.90;;;;;;6239336;28;20113;-74
2023/09/20 20:39:56;;;;;;;11.40;2.05;;;24.10;58.60;;;;;;6220893;28;20143;-73
2023/09/20 20:42:58;;;;;;;19.30;3.42;;;24.10;58.20;;;;;;6238987;28;20123;-73
2023/09/20 20:45:59;;;;;;;9.73;2.35;;;24.10;58.30;;;;;;6247988;28;20389;-74
2023/09/20 20:49:02;;;;;;;5.30;1.98;;;24.00;58.40;;;;;;6263730;28;20160;-73
2023/09/20 20:52:03;;;;;;;9.52;2.25;;;24.00;58.40;;;;;;6245933;28;20712;-73
2023/09/20 20:55:06;;;;;;;5.20;1.88;;;24.00;58.60;;;;;;6264107;28;20029;-74
2023/09/20 20:58:12;;;;;;;3.75;2.10;;;24.00;58.70;;;;;;6263806;28;20095;-73
2023/09/20 21:01:15;;;;;;;11.07;2.67;;;23.90;58.70;;;;;;6245407;28;20041;-73
2023/09/20 21:04:17;;;;;;;4.57;1.98;;;23.90;58.70;;;;;;6228964;28;20094;-76
2023/09/20 21:07:18;;;;;;;5.60;1.98;;;23.90;58.80;;;;;;6261088;28;20044;-74
2023/09/20 21:10:23;;;;;;;3.13;1.98;;;23.90;59.00;;;;;;6223415;28;20477;-74
2023/09/20 21:13:25;;;;;;;10.75;2.25;;;23.80;59.10;;;;;;6238947;28;20034;-74
2023/09/20 21:16:26;;;;;;;3.30;1.80;;;23.90;59.30;;;;;;6238788;28;20029;-72
2023/09/20 21:19:28;;;;;;;5.10;1.92;;;23.90;59.20;;;;;;6238041;28;20125;-71
2023/09/20 21:22:30;;;;;;;9.98;1.90;;;23.90;59.20;;;;;;6238939;28;20107;-73
2023/09/20 21:25:33;;;;;;;10.13;2.08;;;23.80;59.30;;;;;;6203964;28;20057;-73
2023/09/20 21:28:34;;;;;;;4.82;1.55;;;23.80;59.90;;;;;;6220402;28;20776;-73
2023/09/20 21:31:39;;;;;;;9.48;1.75;;;23.80;59.50;;;;;;6220377;28;20091;-72
2023/09/20 21:34:40;;;;;;;2.95;1.65;;;23.70;59.60;;;;;;6238676;28;20079;-74
2023/09/20 21:37:41;;;;;;;2.15;1.63;;;23.70;59.80;;;;;;6220650;28;20533;-73
2023/09/20 21:40:42;;;;;;;8.45;1.90;;;23.60;59.90;;;;;;6219882;28;20045;-74
2023/09/20 21:43:43;;;;;;;4.95;1.60;;;23.60;60.20;;;;;;6220204;28;20041;-74
2023/09/20 21:46:46;;;;;;;4.15;1.48;;;23.50;60.20;;;;;;6234674;28;20043;-73
2023/09/20 21:49:47;;;;;;;5.32;1.92;;;23.50;60.50;;;;;;6262603;28;20373;-74
2023/09/20 21:52:49;;;;;;;5.90;2.05;;;23.50;60.70;;;;;;6263120;28;20525;-73
2023/09/20 21:55:50;;;;;;;10.70;1.92;;;23.50;60.90;;;;;;6262852;28;20087;-73
2023/09/20 21:58:53;;;;;;;3.97;1.48;;;23.40;61.10;;;;;;6262558;28;20031;-75
2023/09/20 22:01:55;;;;;;;5.40;1.98;;;23.50;61.50;;;;;;6244593;28;20033;-74
2023/09/20 22:04:55;;;;;;;3.75;1.52;;;23.40;61.60;;;;;;6237475;28;20040;-74
2023/09/20 22:07:57;;;;;;;2.70;1.77;;;23.30;62.00;;;;;;6195508;28;20351;-75
2023/09/20 22:10:58;;;;;;;6.03;1.77;;;23.30;62.20;;;;;;6202208;28;20060;-75
2023/09/20 22:14:00;;;;;;;4.20;1.55;;;23.30;62.30;;;;;;6237956;28;20041;-74
2023/09/20 22:17:02;;;;;;;3.30;1.50;;;23.30;62.50;;;;;;6237442;28;20105;-74
2023/09/20 22:20:12;;;;;;;2.58;1.45;;;23.30;62.70;;;;;;6203021;28;20407;-75
2023/09/20 22:23:14;;;;;;;4.93;1.65;;;23.30;63.70;;;;;;6219919;28;20040;-74
2023/09/20 22:26:15;;;;;;;6.57;1.88;;;23.10;63.20;;;;;;6237764;28;20592;-74
2023/09/20 22:29:16;;;;;;;6.47;1.65;;;23.10;63.60;;;;;;6237379;28;20049;-73
2023/09/20 22:32:17;;;;;;;3.38;1.52;;;23.10;63.80;;;;;;6237269;28;20481;-74
2023/09/20 22:35:19;;;;;;;4.40;1.35;;;23.10;64.10;;;;;;6218415;28;20167;-74
2023/09/20 22:38:19;;;;;;;2.30;1.55;;;23.00;64.20;;;;;;6212990;28;20541;-75
2023/09/20 22:41:24;;;;;;;2.38;1.70;;;23.00;64.10;;;;;;6194635;28;20026;-77
2023/09/20 22:44:24;;;;;;;7.25;1.67;;;23.00;64.10;;;;;;6197149;28;20083;-75
2023/09/20 22:47:25;;;;;;;2.95;1.35;;;23.00;64.10;;;;;;6239266;28;20120;-75
2023/09/20 22:50:31;;;;;;;5.40;1.50;;;23.10;64.00;;;;;;6243385;28;20049;-76
2023/09/20 22:53:32;;;;;;;3.90;1.50;;;23.10;63.80;;;;;;6243842;28;20040;-74
2023/09/20 22:56:44;;;;;;;7.43;2.10;;;23.10;63.80;;;;;;6261762;28;20044;-74
2023/09/20 22:59:45;;;;;;;5.10;1.77;;;23.10;64.00;;;;;;6260232;28;20060;-75
2023/09/20 23:02:47;;;;;;;11.27;1.65;;;23.10;64.00;;;;;;6212407;28;20064;-75
2023/09/20 23:05:51;;;;;;;1.92;1.10;;;23.20;64.10;;;;;;6212074;28;20370;-75
2023/09/20 23:08:52;;;;;;;4.72;1.40;;;23.30;64.10;;;;;;6194733;28;20034;-74
2023/09/20 23:11:53;;;;;;;3.33;1.50;;;23.30;64.00;;;;;;6241119;28;20118;-75
2023/09/20 23:14:54;;;;;;;2.50;1.50;;;23.30;63.80;;;;;;6261413;28;20115;-76
2023/09/20 23:18:01;;;;;;;4.80;1.25;;;23.30;63.80;;;;;;6261854;28;20126;-74
2023/09/20 23:21:04;;;;;;;5.25;1.40;;;23.30;63.80;;;;;;6243338;28;20074;-75
2023/09/20 23:24:06;;;;;;;7.32;1.65;;;23.20;63.70;;;;;;6217324;28;20487;-74
2023/09/20 23:27:09;;;;;;;5.35;1.42;;;23.20;63.70;;;;;;6212098;28;20034;-75
2023/09/20 23:30:12;;;;;;;2.35;1.77;;;23.30;63.90;;;;;;6211898;28;20045;-75
2023/09/20 23:33:16;;;;;;;6.10;1.85;;;23.30;64.10;;;;;;6194183;28;20104;-75
2023/09/20 23:36:17;;;;;;;6.15;2.50;;;23.30;64.40;;;;;;6211856;28;20034;-74
2023/09/20 23:39:23;;;;;;;5.97;2.53;;;23.30;64.80;;;;;;6212680;28;20440;-75
2023/09/20 23:42:24;;;;;;;9.18;2.25;;;23.30;65.00;;;;;;6214660;28;20102;-73
2023/09/20 23:45:25;;;;;;;7.38;1.88;;;23.20;64.80;;;;;;6220194;28;20097;-74
2023/09/20 23:48:26;;;;;;;2.45;1.83;;;23.20;64.70;;;;;;6240949;28;20029;-74
2023/09/20 23:51:27;;;;;;;6.90;1.70;;;23.20;64.50;;;;;;6240980;28;20025;-74
2023/09/20 23:54:28;;;;;;;9.55;2.17;;;23.20;64.40;;;;;;6240867;28;20030;-75
2023/09/20 23:57:29;;;;;;;7.05;1.77;;;23.30;64.30;;;;;;6227642;28;20034;-75
